createdAt,value
2023-01-17T00:02:21.268Z,14.80
2023-01-17T00:05:07.738Z,15.30
2023-01-17T00:07:54.151Z,10.00
2023-01-17T00:10:26.266Z,11.90
2023-01-17T00:12:58.195Z,16.70
2023-01-17T00:15:28.801Z,10.10
2023-01-17T00:17:57.402Z,10.40
2023-01-17T00:20:48.089Z,12.30
2023-01-17T00:23:42.010Z,12.30
2023-01-17T00:26:16.627Z,10.50
2023-01-17T00:28:45.658Z,9.90
2023-01-17T00:31:16.464Z,13.40
2023-01-17T00:33:44.295Z,10.90
2023-01-17T00:36:12.526Z,14.50
2023-01-17T00:38:41.199Z,12.60
2023-01-17T00:41:14.790Z,11.80
2023-01-17T00:44:01.067Z,13.20
2023-01-17T00:46:47.417Z,10.20
2023-01-17T00:49:33.551Z,12.20
2023-01-17T00:52:20.036Z,8.90
2023-01-17T00:55:06.378Z,12.20
2023-01-17T00:57:52.706Z,10.70
2023-01-17T01:00:39.169Z,11.80
2023-01-17T01:03:30.279Z,10.40
2023-01-17T01:06:17.548Z,10.20
2023-01-17T01:09:04.089Z,10.90
2023-01-17T01:11:50.384Z,12.30
2023-01-17T01:14:37.199Z,12.90
2023-01-17T01:17:23.442Z,11.20
2023-01-17T01:20:09.729Z,11.20
2023-01-17T01:22:55.921Z,13.30
2023-01-17T01:25:42.449Z,11.00
2023-01-17T01:28:31.978Z,10.50
2023-01-17T01:31:23.033Z,11.10
2023-01-17T01:33:52.233Z,9.70
2023-01-17T01:36:20.561Z,13.30
2023-01-17T01:38:50.208Z,13.00
2023-01-17T01:41:18.238Z,14.20
2023-01-17T01:43:55.008Z,11.70
2023-01-17T01:46:41.676Z,9.10
2023-01-17T01:49:21.946Z,10.00
2023-01-17T01:51:55.741Z,10.40
2023-01-17T01:54:30.867Z,9.90
2023-01-17T01:57:05.001Z,11.40
2023-01-17T01:59:34.044Z,11.40
2023-01-17T02:02:02.153Z,10.70
2023-01-17T02:04:29.998Z,9.70
2023-01-17T02:07:08.082Z,9.10
2023-01-17T02:09:37.592Z,7.60
2023-01-17T02:12:07.337Z,9.50
2023-01-17T02:14:35.047Z,11.90
2023-01-17T02:17:39.700Z,8.20
2023-01-17T02:20:41.231Z,10.10
2023-01-17T02:23:44.077Z,8.00
2023-01-17T02:26:42.286Z,9.20
2023-01-17T02:29:51.061Z,8.70
2023-01-17T02:32:44.360Z,10.70
2023-01-17T02:35:21.161Z,11.70
2023-01-17T02:37:58.198Z,9.10
2023-01-17T02:40:41.354Z,10.50
2023-01-17T02:43:15.448Z,9.40
2023-01-17T02:45:43.352Z,10.80
2023-01-17T02:48:16.921Z,10.70
2023-01-17T02:51:11.963Z,9.50
2023-01-17T02:54:03.950Z,6.50
2023-01-17T02:57:06.876Z,8.00
2023-01-17T02:59:57.168Z,9.70
2023-01-17T03:02:40.702Z,7.90
2023-01-17T03:05:24.004Z,7.80
2023-01-17T03:07:53.889Z,10.40
2023-01-17T03:10:23.689Z,12.50
2023-01-17T03:12:58.345Z,12.10
2023-01-17T03:15:26.854Z,12.20
2023-01-17T03:18:01.353Z,11.80
2023-01-17T03:20:29.083Z,11.20
2023-01-17T03:22:56.859Z,8.80
2023-01-17T03:25:24.597Z,11.90
2023-01-17T03:27:52.270Z,11.60
2023-01-17T03:30:21.732Z,9.80
2023-01-17T03:32:50.206Z,10.00
2023-01-17T03:35:18.617Z,7.20
2023-01-17T03:37:46.413Z,9.20
2023-01-17T03:40:14.351Z,7.90
2023-01-17T03:42:42.748Z,10.50
2023-01-17T03:45:11.305Z,10.20
2023-01-17T03:47:39.138Z,8.70
2023-01-17T03:50:07.996Z,8.60
2023-01-17T03:52:35.722Z,10.80
2023-01-17T03:55:04.883Z,8.80
2023-01-17T03:57:32.552Z,9.70
2023-01-17T04:00:00.251Z,10.20
2023-01-17T04:02:27.928Z,10.20
2023-01-17T04:04:55.632Z,10.00
2023-01-17T04:07:23.388Z,9.20
2023-01-17T04:09:51.069Z,10.30
2023-01-17T04:12:18.876Z,11.80
2023-01-17T04:14:48.091Z,8.30
2023-01-17T04:17:19.703Z,8.70
2023-01-17T04:19:47.712Z,9.60
2023-01-17T04:22:15.534Z,9.50
2023-01-17T04:24:43.243Z,9.20
2023-01-17T04:27:14.318Z,9.70
2023-01-17T04:29:42.222Z,10.30
2023-01-17T04:32:09.987Z,9.50
2023-01-17T04:34:37.870Z,10.00
2023-01-17T04:37:05.778Z,9.60
2023-01-17T04:39:33.497Z,7.90
2023-01-17T04:42:01.223Z,9.20
2023-01-17T04:44:29.048Z,8.30
2023-01-17T04:46:56.773Z,8.70
2023-01-17T04:49:24.488Z,10.10
2023-01-17T04:51:52.257Z,9.90
2023-01-17T04:54:19.977Z,9.50
2023-01-17T04:56:47.654Z,10.70
2023-01-17T04:59:16.001Z,8.60
2023-01-17T05:01:43.776Z,8.80
2023-01-17T05:04:11.465Z,8.80
2023-01-17T05:06:39.187Z,9.70
2023-01-17T05:09:07.207Z,8.70
2023-01-17T05:11:34.890Z,8.90
2023-01-17T05:14:02.688Z,8.40
2023-01-17T05:16:30.426Z,9.00
2023-01-17T05:18:58.182Z,8.80
2023-01-17T05:21:25.933Z,11.10
2023-01-17T05:23:54.036Z,8.40
2023-01-17T05:26:21.805Z,9.40
2023-01-17T05:28:50.721Z,8.50
2023-01-17T05:31:18.694Z,8.90
2023-01-17T05:33:46.393Z,8.50
2023-01-17T05:36:14.262Z,9.60
2023-01-17T05:38:41.960Z,6.70
2023-01-17T05:41:09.679Z,7.90
2023-01-17T05:43:37.656Z,9.90
2023-01-17T05:46:05.636Z,8.90
2023-01-17T05:48:33.389Z,7.80
2023-01-17T05:51:01.834Z,9.50
2023-01-17T05:53:29.580Z,9.00
2023-01-17T05:55:57.309Z,10.20
2023-01-17T05:58:25.039Z,8.10
2023-01-17T06:00:55.818Z,9.50
2023-01-17T06:03:23.666Z,8.50
2023-01-17T06:05:51.388Z,8.40
2023-01-17T06:08:19.155Z,7.60
2023-01-17T06:10:46.842Z,11.90
2023-01-17T06:13:16.722Z,8.40
2023-01-17T06:15:44.683Z,10.70
2023-01-17T06:18:16.267Z,8.10
2023-01-17T06:20:44.931Z,10.80
2023-01-17T06:23:14.677Z,13.20
2023-01-17T06:25:45.999Z,9.00
2023-01-17T06:28:19.864Z,9.10
2023-01-17T06:30:48.589Z,12.30
2023-01-17T06:33:16.631Z,10.00
2023-01-17T06:35:50.005Z,11.60
2023-01-17T06:38:18.467Z,11.60
2023-01-17T06:40:46.267Z,10.70
2023-01-17T06:43:14.041Z,10.90
2023-01-17T06:45:41.732Z,7.30
2023-01-17T06:48:09.621Z,8.00
2023-01-17T06:50:38.086Z,10.30
2023-01-17T06:53:07.046Z,9.80
2023-01-17T06:55:35.254Z,10.00
2023-01-17T06:58:03.933Z,9.80
2023-01-17T07:00:34.914Z,6.30
2023-01-17T07:03:03.227Z,7.30
2023-01-17T07:05:30.996Z,8.10
2023-01-17T07:07:58.896Z,10.10
2023-01-17T07:10:26.714Z,6.90
2023-01-17T07:12:59.921Z,9.70
2023-01-17T07:15:27.715Z,8.60
2023-01-17T07:17:55.546Z,8.00
2023-01-17T07:20:23.269Z,6.20
2023-01-17T07:22:51.339Z,7.70
2023-01-17T07:25:20.050Z,5.90
2023-01-17T07:27:47.965Z,11.00
2023-01-17T07:30:16.151Z,7.80
2023-01-17T07:32:43.951Z,8.10
2023-01-17T07:35:11.670Z,6.40
2023-01-17T07:37:39.419Z,7.50
2023-01-17T07:40:07.871Z,6.70
2023-01-17T07:42:35.602Z,8.90
2023-01-17T07:45:04.134Z,10.70
2023-01-17T07:47:33.898Z,15.00
2023-01-17T07:50:02.726Z,10.50
2023-01-17T07:52:30.647Z,8.80
2023-01-17T07:57:42.009Z,10.90
2023-01-17T08:00:10.622Z,11.90
2023-01-17T08:02:40.980Z,11.30
2023-01-17T08:05:09.198Z,9.20
2023-01-17T08:07:36.857Z,11.40
2023-01-17T08:10:06.676Z,10.40
2023-01-17T08:12:36.264Z,11.80
2023-01-17T08:15:04.943Z,16.30
2023-01-17T08:17:32.690Z,12.20
2023-01-17T08:20:00.441Z,14.00
2023-01-17T08:22:30.737Z,13.50
2023-01-17T08:24:58.637Z,17.90
2023-01-17T08:27:28.157Z,8.70
2023-01-17T08:29:55.953Z,18.60
2023-01-17T08:32:23.782Z,60.60
2023-01-17T08:34:51.467Z,47.50
2023-01-17T08:37:19.365Z,27.60
2023-01-17T08:39:47.115Z,13.10
2023-01-17T08:42:14.898Z,119.90
2023-01-17T08:44:43.557Z,123.90
2023-01-17T08:47:11.453Z,69.10
2023-01-17T08:49:39.198Z,59.00
2023-01-17T08:52:07.085Z,39.20
2023-01-17T08:54:34.815Z,13.30
2023-01-17T08:57:04.193Z,13.10
2023-01-17T08:59:32.029Z,20.80
2023-01-17T09:02:01.559Z,14.60
2023-01-17T09:04:29.386Z,9.30
2023-01-17T09:06:57.457Z,11.70
2023-01-17T09:09:25.573Z,8.50
2023-01-17T09:11:53.296Z,12.20
2023-01-17T09:14:21.087Z,9.90
2023-01-17T09:16:50.939Z,11.20
2023-01-17T09:19:18.781Z,9.60
2023-01-17T09:21:46.589Z,8.20
2023-01-17T09:24:14.411Z,9.50
2023-01-17T09:26:42.279Z,9.30
2023-01-17T09:29:10.231Z,12.00
2023-01-17T09:31:38.004Z,11.30
2023-01-17T09:34:05.753Z,10.80
2023-01-17T09:36:33.908Z,12.40
2023-01-17T09:39:03.977Z,13.60
2023-01-17T09:41:37.275Z,10.40
2023-01-17T09:44:26.045Z,11.00
2023-01-17T09:47:00.107Z,13.50
2023-01-17T09:49:38.622Z,12.80
2023-01-17T09:52:11.795Z,17.90
2023-01-17T09:54:43.039Z,14.40
2023-01-17T09:57:52.117Z,12.40
2023-01-17T10:00:35.025Z,12.90
2023-01-17T10:03:42.399Z,14.60
2023-01-17T10:06:40.688Z,17.40
2023-01-17T10:09:29.518Z,21.20
2023-01-17T10:12:28.757Z,19.60
2023-01-17T10:15:37.382Z,14.40
2023-01-17T10:18:58.280Z,12.60
2023-01-17T10:21:51.060Z,11.50
2023-01-17T10:24:42.446Z,10.80
2023-01-17T10:27:23.140Z,13.00
2023-01-17T10:29:51.767Z,15.70
2023-01-17T10:32:25.206Z,12.40
2023-01-17T10:34:53.617Z,14.20
2023-01-17T10:37:36.226Z,14.30
2023-01-17T10:40:19.604Z,16.30
2023-01-17T10:43:02.548Z,22.30
2023-01-17T10:45:41.448Z,10.40
2023-01-17T10:48:42.420Z,15.90
2023-01-17T10:51:31.781Z,19.40
2023-01-17T10:54:26.948Z,19.70
2023-01-17T10:56:55.295Z,19.60
2023-01-17T10:59:37.131Z,16.70
2023-01-17T11:02:23.324Z,17.70
2023-01-17T11:04:55.011Z,21.60
2023-01-17T11:09:58.799Z,19.40
2023-01-17T11:12:40.320Z,17.60
2023-01-17T11:17:53.025Z,16.60
2023-01-17T11:20:54.743Z,18.30
2023-01-17T11:23:33.182Z,20.10
2023-01-17T11:26:04.982Z,18.70
2023-01-17T11:28:35.964Z,19.50
2023-01-17T11:31:09.374Z,20.40
2023-01-17T11:33:45.802Z,21.90
2023-01-17T11:36:30.088Z,22.00
2023-01-17T11:39:06.087Z,21.20
2023-01-17T11:41:40.764Z,21.50
2023-01-17T11:44:30.974Z,17.20
2023-01-17T11:47:14.655Z,20.20
2023-01-17T11:49:48.443Z,19.50
2023-01-17T11:52:24.238Z,16.50
2023-01-17T11:54:55.324Z,20.40
2023-01-17T11:57:29.039Z,17.10
2023-01-17T12:00:45.839Z,18.20
2023-01-17T12:03:54.397Z,18.00
2023-01-17T12:06:57.521Z,22.10
2023-01-17T12:09:55.970Z,23.70
2023-01-17T12:13:00.963Z,22.00
2023-01-17T12:15:53.651Z,25.80
2023-01-17T12:18:35.020Z,31.00
2023-01-17T12:21:12.389Z,60.70
2023-01-17T12:24:25.064Z,46.10
2023-01-17T12:27:29.631Z,79.00
2023-01-17T12:30:21.223Z,65.90
2023-01-17T12:33:19.049Z,49.00
2023-01-17T12:36:31.052Z,50.90
2023-01-17T12:39:05.241Z,38.70
2023-01-17T12:41:38.476Z,30.30
2023-01-17T12:44:10.016Z,28.30
2023-01-17T12:49:26.716Z,24.50
2023-01-17T12:52:39.124Z,21.40
2023-01-17T12:55:19.180Z,27.60
2023-01-17T12:57:58.186Z,25.60
2023-01-17T13:00:29.845Z,25.00
2023-01-17T13:03:40.393Z,27.50
2023-01-17T13:06:22.185Z,19.90
2023-01-17T13:11:43.689Z,33.70
2023-01-17T13:14:11.446Z,32.90
2023-01-17T13:16:51.527Z,37.40
2023-01-17T13:20:06.067Z,40.40
2023-01-17T13:22:37.587Z,42.40
2023-01-17T13:28:38.099Z,48.50
2023-01-17T13:31:23.194Z,33.50
2023-01-17T13:34:27.030Z,31.70
2023-01-17T13:37:33.408Z,34.40
2023-01-17T13:40:33.753Z,33.10
2023-01-17T13:43:05.405Z,33.60
2023-01-17T13:48:38.511Z,34.80
2023-01-17T13:51:06.953Z,35.90
2023-01-17T13:53:34.656Z,63.70
2023-01-17T13:56:24.671Z,42.70
2023-01-17T13:58:54.579Z,17.00
2023-01-17T14:01:22.421Z,17.10
2023-01-17T14:03:50.487Z,11.20
2023-01-17T14:06:46.796Z,13.00
2023-01-17T14:09:23.881Z,12.80
2023-01-17T14:12:05.169Z,19.30
2023-01-17T14:14:42.840Z,12.60
2023-01-17T14:17:26.714Z,15.20
2023-01-17T14:20:09.564Z,10.10
2023-01-17T14:22:59.847Z,11.50
2023-01-17T14:25:41.607Z,12.10
2023-01-17T14:28:29.284Z,23.70
2023-01-17T14:31:00.910Z,20.70
2023-01-17T14:36:24.952Z,14.40
2023-01-17T14:38:53.218Z,39.20
2023-01-17T14:41:27.569Z,12.20
2023-01-17T14:43:59.572Z,13.00
2023-01-17T14:46:34.039Z,16.20
2023-01-17T14:49:24.006Z,39.70
2023-01-17T14:52:03.909Z,13.40
2023-01-17T14:54:32.528Z,15.00
2023-01-17T14:57:28.681Z,9.80
2023-01-17T15:00:19.021Z,13.20
2023-01-17T15:02:48.585Z,37.50
2023-01-17T15:05:20.086Z,20.90
2023-01-17T15:07:53.025Z,11.80
2023-01-17T15:10:33.694Z,12.80
2023-01-17T15:13:09.183Z,29.90
2023-01-17T15:15:40.160Z,22.80
2023-01-17T15:18:26.162Z,9.90
2023-01-17T15:21:13.376Z,15.10
2023-01-17T15:23:48.127Z,21.10
2023-01-17T15:26:20.778Z,51.10
2023-01-17T15:28:49.400Z,23.40
2023-01-17T15:31:33.094Z,14.50
2023-01-17T15:34:08.225Z,13.50
2023-01-17T15:36:36.066Z,12.50
2023-01-17T15:39:17.366Z,11.90
2023-01-17T15:41:45.138Z,16.40
2023-01-17T15:44:49.495Z,14.40
2023-01-17T15:47:33.870Z,12.50
2023-01-17T15:50:24.657Z,14.70
2023-01-17T15:52:57.490Z,20.20
2023-01-17T15:55:33.039Z,17.10
2023-01-17T15:58:03.664Z,19.10
2023-01-17T16:00:40.456Z,17.40
2023-01-17T16:03:20.100Z,13.80
2023-01-17T16:05:49.784Z,23.70
2023-01-17T16:08:32.823Z,15.90
2023-01-17T16:11:06.132Z,27.40
2023-01-17T16:13:42.310Z,17.50
2023-01-17T16:16:16.789Z,15.10
2023-01-17T16:18:46.563Z,23.30
2023-01-17T16:21:25.128Z,20.10
2023-01-17T16:23:54.010Z,28.60
2023-01-17T16:26:22.219Z,22.80
2023-01-17T16:28:51.175Z,24.60
2023-01-17T16:31:19.760Z,20.20
2023-01-17T16:33:50.699Z,26.50
2023-01-17T16:36:20.795Z,23.60
2023-01-17T16:38:51.240Z,30.00
2023-01-17T16:41:20.707Z,27.80
2023-01-17T16:43:59.716Z,22.40
2023-01-17T16:46:29.633Z,43.20
2023-01-17T16:49:00.170Z,31.20
2023-01-17T16:51:28.000Z,30.40
2023-01-17T16:53:56.008Z,30.30
2023-01-17T16:56:24.062Z,23.10
2023-01-17T16:58:53.194Z,23.60
2023-01-17T17:01:22.588Z,31.90
2023-01-17T17:03:50.849Z,79.60
2023-01-17T17:06:19.022Z,31.50
2023-01-17T17:08:47.688Z,31.00
2023-01-17T17:11:19.992Z,25.90
2023-01-17T17:13:50.253Z,29.20
2023-01-17T17:16:22.770Z,23.10
2023-01-17T17:18:59.906Z,27.20
2023-01-17T17:21:33.898Z,26.80
2023-01-17T17:24:02.702Z,23.60
2023-01-17T17:26:34.968Z,21.50
2023-01-17T17:29:05.015Z,26.60
2023-01-17T17:31:33.383Z,22.50
2023-01-17T17:34:03.530Z,22.30
2023-01-17T17:36:31.594Z,60.80
2023-01-17T17:39:03.434Z,23.80
2023-01-17T17:41:34.822Z,26.20
2023-01-17T17:44:04.111Z,29.30
2023-01-17T17:46:34.944Z,22.70
2023-01-17T17:49:04.244Z,21.80
2023-01-17T17:51:35.880Z,26.50
2023-01-17T17:54:10.124Z,22.50
2023-01-17T17:56:39.844Z,23.80
2023-01-17T17:59:09.428Z,24.90
2023-01-17T18:01:40.975Z,19.60
2023-01-17T18:04:09.750Z,26.10
2023-01-17T18:06:38.677Z,24.60
2023-01-17T18:09:09.062Z,26.10
2023-01-17T18:11:40.899Z,31.10
2023-01-17T18:14:13.717Z,29.70
2023-01-17T18:16:43.905Z,28.50
2023-01-17T18:19:21.722Z,25.60
2023-01-17T18:21:53.227Z,23.10
2023-01-17T18:24:24.260Z,25.80
2023-01-17T18:26:57.604Z,38.80
2023-01-17T18:29:27.447Z,37.00
2023-01-17T18:31:55.837Z,51.50
2023-01-17T18:34:29.123Z,39.10
2023-01-17T18:36:57.870Z,44.40
2023-01-17T18:39:29.525Z,19.40
2023-01-17T18:41:58.288Z,23.70
2023-01-17T18:44:27.354Z,21.10
2023-01-17T18:46:57.961Z,24.10
2023-01-17T18:49:25.764Z,26.30
2023-01-17T18:51:53.721Z,20.10
2023-01-17T18:54:21.944Z,25.40
2023-01-17T18:56:51.179Z,24.70
2023-01-17T18:59:20.391Z,28.60
2023-01-17T19:01:48.240Z,30.90
2023-01-17T19:04:17.524Z,38.50
2023-01-17T19:06:48.363Z,27.70
2023-01-17T19:09:17.467Z,44.60
2023-01-17T19:11:46.194Z,26.50
2023-01-17T19:14:14.432Z,23.90
2023-01-17T19:16:43.045Z,27.10
2023-01-17T19:19:15.265Z,27.40
2023-01-17T19:21:43.476Z,26.10
2023-01-17T19:24:13.113Z,30.30
2023-01-17T19:26:42.981Z,25.60
2023-01-17T19:29:12.253Z,24.00
2023-01-17T19:31:43.158Z,27.90
2023-01-17T19:34:18.864Z,29.60
2023-01-17T19:36:47.170Z,26.00
2023-01-17T19:39:14.935Z,20.40
2023-01-17T19:41:45.642Z,20.40
2023-01-17T19:44:14.693Z,20.60
2023-01-17T19:46:43.780Z,34.70
2023-01-17T19:49:12.082Z,25.20
2023-01-17T19:51:39.952Z,33.40
2023-01-17T19:54:08.479Z,22.70
2023-01-17T19:56:36.705Z,21.90
2023-01-17T19:59:04.556Z,19.80
2023-01-17T20:01:34.603Z,23.30
2023-01-17T20:04:04.166Z,20.00
2023-01-17T20:06:35.642Z,18.60
2023-01-17T20:11:33.383Z,19.50
2023-01-17T20:14:05.428Z,19.20
2023-01-17T20:16:37.211Z,23.70
2023-01-17T20:19:05.517Z,21.70
2023-01-17T20:21:34.373Z,23.40
2023-01-17T20:24:05.759Z,31.40
2023-01-17T20:29:16.285Z,24.50
2023-01-17T20:31:45.627Z,24.60
2023-01-17T20:34:14.372Z,22.20
2023-01-17T20:36:42.488Z,21.80
2023-01-17T20:39:14.433Z,22.40
2023-01-17T20:41:45.605Z,20.60
2023-01-17T20:44:15.855Z,26.70
2023-01-17T20:46:44.319Z,19.80
2023-01-17T20:49:17.084Z,21.50
2023-01-17T20:51:47.274Z,23.60
2023-01-17T20:54:18.680Z,22.30
2023-01-17T20:56:47.830Z,21.40
2023-01-17T20:59:22.212Z,24.90
2023-01-17T21:01:50.502Z,26.20
2023-01-17T21:04:24.830Z,23.40
2023-01-17T21:06:53.303Z,23.80
2023-01-17T21:09:21.958Z,22.60
2023-01-17T21:11:50.446Z,22.90
2023-01-17T21:14:18.235Z,25.70
2023-01-17T21:16:46.186Z,24.60
2023-01-17T21:19:15.128Z,20.90
2023-01-17T21:21:43.054Z,27.60
2023-01-17T21:24:16.331Z,22.00
2023-01-17T21:26:45.871Z,26.60
2023-01-17T21:29:15.904Z,23.30
2023-01-17T21:31:45.146Z,25.40
2023-01-17T21:34:13.674Z,23.60
2023-01-17T21:36:42.867Z,21.60
2023-01-17T21:39:18.886Z,19.20
2023-01-17T21:41:49.605Z,20.10
2023-01-17T21:44:21.495Z,22.90
2023-01-17T21:46:54.272Z,19.80
2023-01-17T21:49:23.894Z,25.10
2023-01-17T21:51:54.519Z,26.10
2023-01-17T21:54:46.520Z,20.50
2023-01-17T21:57:39.357Z,20.80
2023-01-17T22:00:16.131Z,24.80
2023-01-17T22:02:46.165Z,23.30
2023-01-17T22:05:16.394Z,21.70
2023-01-17T22:08:05.251Z,19.70
2023-01-17T22:10:33.289Z,22.00
2023-01-17T22:13:01.026Z,18.90
2023-01-17T22:15:28.803Z,18.80
2023-01-17T22:17:56.894Z,17.00
2023-01-17T22:20:24.725Z,16.20
2023-01-17T22:22:52.421Z,17.20
2023-01-17T22:25:21.085Z,17.90
2023-01-17T22:27:49.528Z,20.50
2023-01-17T22:30:19.435Z,22.30
2023-01-17T22:32:47.512Z,20.00
2023-01-17T22:35:15.280Z,17.70
2023-01-17T22:37:44.419Z,21.20
2023-01-17T22:40:12.687Z,20.60
2023-01-17T22:42:40.488Z,21.80
2023-01-17T22:45:10.257Z,22.60
2023-01-17T22:47:38.606Z,21.90
2023-01-17T22:50:07.432Z,21.00
2023-01-17T22:52:35.822Z,20.00
2023-01-17T22:55:04.013Z,20.50
2023-01-17T22:57:31.736Z,18.80
2023-01-17T22:59:59.414Z,17.60
2023-01-17T23:02:27.286Z,19.80
2023-01-17T23:04:55.137Z,22.40
2023-01-17T23:07:26.504Z,19.40
2023-01-17T23:09:54.192Z,16.90
2023-01-17T23:12:21.893Z,22.40
2023-01-17T23:15:08.152Z,16.40
2023-01-17T23:17:54.627Z,13.40
2023-01-17T23:20:22.404Z,13.40
2023-01-17T23:22:50.457Z,13.10
2023-01-17T23:25:18.298Z,15.50
2023-01-17T23:28:06.164Z,13.40
2023-01-17T23:30:40.575Z,13.20
2023-01-17T23:33:12.069Z,16.00
2023-01-17T23:38:31.231Z,15.20
2023-01-17T23:41:24.317Z,13.60
2023-01-17T23:43:58.112Z,11.10
2023-01-17T23:46:27.203Z,10.20
2023-01-17T23:48:55.346Z,12.40
2023-01-17T23:51:23.271Z,14.40
2023-01-17T23:53:57.141Z,10.70
2023-01-17T23:56:24.977Z,13.70
2023-01-17T23:58:52.805Z,12.10
